createdAt,value
2022-12-03T00:01:58.919Z,100.00
2022-12-03T00:04:28.422Z,100.00
2022-12-03T00:06:57.408Z,100.00
2022-12-03T00:09:26.313Z,100.00
2022-12-03T00:11:55.711Z,100.00
2022-12-03T00:14:26.363Z,100.00
2022-12-03T00:16:55.241Z,100.00
2022-12-03T00:19:24.621Z,100.00
2022-12-03T00:21:54.227Z,100.00
2022-12-03T00:24:23.642Z,100.00
2022-12-03T00:26:53.166Z,100.00
2022-12-03T00:29:23.086Z,100.00
2022-12-03T00:31:52.874Z,100.00
2022-12-03T00:34:22.772Z,100.00
2022-12-03T00:36:51.567Z,100.00
2022-12-03T00:39:20.557Z,100.00
2022-12-03T00:41:49.982Z,100.00
2022-12-03T00:44:19.974Z,100.00
2022-12-03T00:46:49.030Z,100.00
2022-12-03T00:49:18.584Z,100.00
2022-12-03T00:51:49.052Z,100.00
2022-12-03T00:54:17.920Z,100.00
2022-12-03T00:56:47.796Z,100.00
2022-12-03T00:59:18.175Z,100.00
2022-12-03T01:01:47.366Z,100.00
2022-12-03T01:04:17.448Z,100.00
2022-12-03T01:06:47.264Z,100.00
2022-12-03T01:09:16.678Z,100.00
2022-12-03T01:11:46.283Z,100.00
2022-12-03T01:14:17.956Z,100.00
2022-12-03T01:16:48.451Z,100.00
2022-12-03T01:19:18.791Z,100.00
2022-12-03T01:21:49.187Z,100.00
2022-12-03T01:24:19.707Z,100.00
2022-12-03T01:26:49.012Z,100.00
2022-12-03T01:29:18.338Z,100.00
2022-12-03T01:32:06.376Z,100.00
2022-12-03T01:34:35.925Z,100.00
2022-12-03T01:37:05.289Z,100.00
2022-12-03T01:39:34.495Z,100.00
2022-12-03T01:42:05.114Z,100.00
2022-12-03T01:44:37.021Z,100.00
2022-12-03T01:47:11.929Z,100.00
2022-12-03T01:50:00.546Z,100.00
2022-12-03T01:52:35.285Z,100.00
2022-12-03T01:55:12.205Z,100.00
2022-12-03T01:57:45.252Z,100.00
2022-12-03T02:00:21.619Z,100.00
2022-12-03T02:03:02.200Z,100.00
2022-12-03T02:05:33.996Z,100.00
2022-12-03T02:08:42.795Z,100.00
2022-12-03T02:11:32.447Z,100.00
2022-12-03T02:14:11.046Z,100.00
2022-12-03T02:16:42.622Z,100.00
2022-12-03T02:19:26.797Z,100.00
2022-12-03T02:22:17.046Z,100.00
2022-12-03T02:25:01.007Z,100.00
2022-12-03T02:27:30.749Z,100.00
2022-12-03T02:30:00.227Z,100.00
2022-12-03T02:32:31.231Z,100.00
2022-12-03T02:35:02.234Z,100.00
2022-12-03T02:37:38.746Z,100.00
2022-12-03T02:40:13.604Z,100.00
2022-12-03T02:42:46.205Z,100.00
2022-12-03T02:45:28.006Z,100.00
2022-12-03T02:48:20.951Z,100.00
2022-12-03T02:50:58.090Z,100.00
2022-12-03T02:53:33.457Z,100.00
2022-12-03T02:56:04.874Z,100.00
2022-12-03T02:58:37.125Z,100.00
2022-12-03T03:01:09.082Z,100.00
2022-12-03T03:03:41.205Z,100.00
2022-12-03T03:06:11.421Z,100.00
2022-12-03T03:08:43.393Z,100.00
2022-12-03T03:11:13.227Z,100.00
2022-12-03T03:13:43.316Z,100.00
2022-12-03T03:16:13.794Z,100.00
2022-12-03T03:18:43.836Z,100.00
2022-12-03T03:21:14.028Z,100.00
2022-12-03T03:23:43.251Z,100.00
2022-12-03T03:26:15.657Z,100.00
2022-12-03T03:28:49.851Z,100.00
2022-12-03T03:31:23.893Z,100.00
2022-12-03T03:33:54.043Z,100.00
2022-12-03T03:36:26.198Z,100.00
2022-12-03T03:38:56.111Z,100.00
2022-12-03T03:41:27.523Z,100.00
2022-12-03T03:43:58.782Z,100.00
2022-12-03T03:46:30.131Z,100.00
2022-12-03T03:49:03.342Z,100.00
2022-12-03T03:51:37.580Z,100.00
2022-12-03T03:54:08.214Z,100.00
2022-12-03T03:56:39.095Z,100.00
2022-12-03T03:59:09.245Z,100.00
2022-12-03T04:01:39.502Z,100.00
2022-12-03T04:04:21.067Z,100.00
2022-12-03T04:06:51.078Z,100.00
2022-12-03T04:09:20.433Z,100.00
2022-12-03T04:12:08.364Z,100.00
2022-12-03T04:14:39.698Z,100.00
2022-12-03T04:17:09.539Z,100.00
2022-12-03T04:19:38.813Z,100.00
2022-12-03T04:22:26.449Z,100.00
2022-12-03T04:25:15.625Z,100.00
2022-12-03T04:28:04.780Z,100.00
2022-12-03T04:30:34.005Z,100.00
2022-12-03T04:33:23.273Z,100.00
2022-12-03T04:35:53.585Z,100.00
2022-12-03T04:38:23.673Z,100.00
2022-12-03T04:41:03.338Z,100.00
2022-12-03T04:43:35.357Z,100.00
2022-12-03T04:46:04.327Z,100.00
2022-12-03T04:48:33.979Z,100.00
2022-12-03T04:51:03.304Z,100.00
2022-12-03T04:53:36.251Z,100.00
2022-12-03T04:56:06.400Z,100.00
2022-12-03T04:58:35.289Z,100.00
2022-12-03T05:01:04.721Z,100.00
2022-12-03T05:03:33.685Z,100.00
2022-12-03T05:06:02.989Z,100.00
2022-12-03T05:08:31.869Z,100.00
2022-12-03T05:11:01.265Z,100.00
2022-12-03T05:13:30.262Z,100.00
2022-12-03T05:15:59.057Z,100.00
2022-12-03T05:18:28.080Z,100.00
2022-12-03T05:20:57.068Z,100.00
2022-12-03T05:23:26.350Z,100.00
2022-12-03T05:25:56.044Z,100.00
2022-12-03T05:28:25.356Z,100.00
2022-12-03T05:30:55.230Z,100.00
2022-12-03T05:33:24.161Z,100.00
2022-12-03T05:35:54.065Z,100.00
2022-12-03T05:38:22.972Z,100.00
2022-12-03T05:40:52.154Z,100.00
2022-12-03T05:43:21.472Z,100.00
2022-12-03T05:45:51.437Z,100.00
2022-12-03T05:48:20.387Z,100.00
2022-12-03T05:50:49.976Z,100.00
2022-12-03T05:53:19.073Z,100.00
2022-12-03T05:55:48.466Z,100.00
2022-12-03T05:58:17.773Z,100.00
2022-12-03T06:00:46.559Z,100.00
2022-12-03T06:03:15.983Z,100.00
2022-12-03T06:05:45.053Z,100.00
2022-12-03T06:08:14.632Z,100.00
2022-12-03T06:10:43.858Z,100.00
2022-12-03T06:13:12.780Z,100.00
2022-12-03T06:15:44.001Z,100.00
2022-12-03T06:18:13.493Z,100.00
2022-12-03T06:20:42.179Z,100.00
2022-12-03T06:23:10.867Z,100.00
2022-12-03T06:25:41.109Z,100.00
2022-12-03T06:28:10.077Z,100.00
2022-12-03T06:30:38.969Z,100.00
2022-12-03T06:33:07.760Z,100.00
2022-12-03T06:35:37.263Z,100.00
2022-12-03T06:38:06.258Z,100.00
2022-12-03T06:40:35.246Z,100.00
2022-12-03T06:43:04.338Z,100.00
2022-12-03T06:45:33.231Z,100.00
2022-12-03T06:48:02.017Z,100.00
2022-12-03T06:50:31.113Z,100.00
2022-12-03T06:53:00.107Z,100.00
2022-12-03T06:55:28.895Z,100.00
2022-12-03T06:57:57.573Z,100.00
2022-12-03T07:00:26.163Z,100.00
2022-12-03T07:02:54.916Z,100.00
2022-12-03T07:05:23.838Z,100.00
2022-12-03T07:07:55.771Z,100.00
2022-12-03T07:10:24.701Z,100.00
2022-12-03T07:12:53.580Z,100.00
2022-12-03T07:15:22.470Z,100.00
2022-12-03T07:17:51.465Z,100.00
2022-12-03T07:20:20.251Z,100.00
2022-12-03T07:22:48.835Z,100.00
2022-12-03T07:25:22.826Z,100.00
2022-12-03T07:27:52.552Z,100.00
2022-12-03T07:30:22.159Z,100.00
2022-12-03T07:32:50.648Z,100.00
2022-12-03T07:35:19.533Z,100.00
2022-12-03T07:37:48.221Z,100.00
2022-12-03T07:40:18.028Z,100.00
2022-12-03T07:42:46.612Z,100.00
2022-12-03T07:45:15.503Z,100.00
2022-12-03T07:47:44.187Z,100.00
2022-12-03T07:50:13.093Z,100.00
2022-12-03T07:52:41.863Z,100.00
2022-12-03T07:55:11.927Z,100.00
2022-12-03T07:57:40.671Z,100.00
2022-12-03T08:00:11.074Z,100.00
2022-12-03T08:02:39.619Z,100.00
2022-12-03T08:05:09.293Z,100.00
2022-12-03T08:07:38.018Z,100.00
2022-12-03T08:10:08.020Z,100.00
2022-12-03T08:12:42.517Z,100.00
2022-12-03T08:15:12.866Z,100.00
2022-12-03T08:17:42.774Z,100.00
2022-12-03T08:20:16.947Z,100.00
2022-12-03T08:22:47.700Z,100.00
2022-12-03T08:25:25.515Z,100.00
2022-12-03T08:28:02.965Z,100.00
2022-12-03T08:30:31.680Z,100.00
2022-12-03T08:33:00.268Z,100.00
2022-12-03T08:35:31.634Z,100.00
2022-12-03T08:38:12.036Z,100.00
2022-12-03T08:40:43.785Z,100.00
2022-12-03T08:43:24.907Z,100.00
2022-12-03T08:45:57.898Z,100.00
2022-12-03T08:48:34.258Z,100.00
2022-12-03T08:51:20.760Z,100.00
2022-12-03T08:54:01.723Z,100.00
2022-12-03T08:56:37.073Z,100.00
2022-12-03T08:59:27.059Z,100.00
2022-12-03T09:01:57.207Z,100.00
2022-12-03T09:04:45.806Z,100.00
2022-12-03T09:07:14.511Z,100.00
2022-12-03T09:09:43.124Z,100.00
2022-12-03T09:12:11.985Z,99.96
2022-12-03T09:14:40.465Z,99.13
2022-12-03T09:17:09.215Z,98.34
2022-12-03T09:19:44.267Z,97.37
2022-12-03T09:22:15.740Z,97.40
2022-12-03T09:24:44.732Z,97.73
2022-12-03T09:27:13.322Z,98.18
2022-12-03T09:29:42.104Z,99.16
2022-12-03T09:32:16.669Z,97.09
2022-12-03T09:34:47.875Z,95.55
2022-12-03T09:37:16.863Z,94.39
2022-12-03T09:39:45.516Z,94.53
2022-12-03T09:42:15.878Z,93.82
2022-12-03T09:44:44.866Z,92.84
2022-12-03T09:47:14.068Z,92.75
2022-12-03T09:49:43.471Z,92.73
2022-12-03T09:52:21.178Z,90.30
2022-12-03T09:54:50.156Z,90.78
2022-12-03T09:57:19.760Z,90.15
2022-12-03T09:59:48.446Z,91.03
2022-12-03T10:02:29.942Z,92.78
2022-12-03T10:04:58.893Z,91.13
2022-12-03T10:07:27.796Z,88.62
2022-12-03T10:09:56.934Z,88.19
2022-12-03T10:12:27.036Z,88.07
2022-12-03T10:14:56.236Z,89.26
2022-12-03T10:17:25.122Z,89.49
2022-12-03T10:19:54.394Z,90.06
2022-12-03T10:22:23.309Z,88.62
2022-12-03T10:25:10.755Z,90.08
2022-12-03T10:27:40.468Z,89.62
2022-12-03T10:30:19.823Z,83.59
2022-12-03T10:32:51.065Z,82.53
2022-12-03T10:35:25.149Z,82.38
2022-12-03T10:38:02.423Z,79.39
2022-12-03T10:40:37.968Z,77.89
2022-12-03T10:43:15.664Z,75.44
2022-12-03T10:45:49.065Z,73.20
2022-12-03T10:48:25.878Z,69.64
2022-12-03T10:51:02.409Z,69.87
2022-12-03T10:53:33.712Z,70.83
2022-12-03T10:56:06.398Z,71.24
2022-12-03T10:58:36.860Z,73.51
2022-12-03T11:01:23.747Z,74.09
2022-12-03T11:03:54.129Z,71.80
2022-12-03T11:06:24.320Z,73.41
2022-12-03T11:08:58.746Z,73.00
2022-12-03T11:11:31.525Z,72.87
2022-12-03T11:14:04.514Z,72.81
2022-12-03T11:16:42.136Z,74.08
2022-12-03T11:19:13.860Z,75.46
2022-12-03T11:22:07.536Z,75.63
2022-12-03T11:24:38.161Z,75.83
2022-12-03T11:27:11.975Z,76.91
2022-12-03T11:29:51.512Z,77.50
2022-12-03T11:32:38.730Z,78.69
2022-12-03T11:35:29.008Z,78.92
2022-12-03T11:38:35.798Z,79.14
2022-12-03T11:41:31.105Z,79.30
2022-12-03T11:44:31.450Z,78.16
2022-12-03T11:47:07.928Z,76.85
2022-12-03T11:49:39.763Z,74.45
2022-12-03T11:52:25.441Z,72.40
2022-12-03T11:55:01.512Z,72.06
2022-12-03T11:57:34.009Z,70.05
2022-12-03T12:00:11.882Z,70.68
2022-12-03T12:02:44.449Z,70.32
2022-12-03T12:05:27.068Z,71.67
2022-12-03T12:07:57.287Z,68.08
2022-12-03T12:10:48.374Z,69.15
2022-12-03T12:13:26.094Z,68.68
2022-12-03T12:15:55.407Z,67.48
2022-12-03T12:18:53.707Z,66.79
2022-12-03T12:21:44.989Z,68.04
2022-12-03T12:24:32.213Z,68.81
2022-12-03T12:27:04.994Z,68.71
2022-12-03T12:29:35.113Z,70.33
2022-12-03T12:32:09.891Z,71.68
2022-12-03T12:34:39.454Z,72.12
2022-12-03T12:37:23.390Z,72.87
2022-12-03T12:39:56.724Z,73.48
2022-12-03T12:42:36.432Z,73.78
2022-12-03T12:45:08.390Z,74.41
2022-12-03T12:47:37.250Z,75.26
2022-12-03T12:50:11.293Z,75.56
2022-12-03T12:52:49.807Z,75.62
2022-12-03T12:55:19.383Z,76.82
2022-12-03T12:57:48.005Z,77.07
2022-12-03T13:00:23.926Z,77.03
2022-12-03T13:03:00.229Z,76.63
2022-12-03T13:05:56.771Z,76.43
2022-12-03T13:08:31.182Z,76.34
2022-12-03T13:11:05.684Z,75.94
2022-12-03T13:13:37.406Z,75.10
2022-12-03T13:16:23.642Z,74.09
2022-12-03T13:19:00.033Z,72.69
2022-12-03T13:21:43.036Z,72.97
2022-12-03T13:24:38.450Z,72.84
2022-12-03T13:27:32.220Z,72.79
2022-12-03T13:30:16.060Z,73.06
2022-12-03T13:32:44.751Z,73.96
2022-12-03T13:35:36.427Z,75.38
2022-12-03T13:38:14.153Z,76.66
2022-12-03T13:40:43.161Z,77.63
2022-12-03T13:43:20.867Z,78.49
2022-12-03T13:45:51.668Z,79.78
2022-12-03T13:48:31.652Z,81.51
2022-12-03T13:51:21.425Z,82.08
2022-12-03T13:53:50.315Z,84.49
2022-12-03T13:56:30.881Z,85.39
2022-12-03T13:59:01.103Z,86.79
2022-12-03T14:01:30.488Z,88.37
2022-12-03T14:03:59.221Z,89.94
2022-12-03T14:06:28.188Z,90.47
2022-12-03T14:08:56.971Z,92.07
2022-12-03T14:11:44.096Z,92.71
2022-12-03T14:14:12.880Z,93.99
2022-12-03T14:16:41.509Z,93.94
2022-12-03T14:19:10.559Z,94.38
2022-12-03T14:21:39.647Z,98.57
2022-12-03T14:24:08.436Z,99.16
2022-12-03T14:26:37.024Z,97.24
2022-12-03T14:29:08.707Z,95.86
2022-12-03T14:31:37.838Z,96.48
2022-12-03T14:34:06.561Z,95.71
2022-12-03T14:36:35.201Z,98.18
2022-12-03T14:39:03.931Z,100.00
2022-12-03T14:41:51.869Z,100.00
2022-12-03T14:44:23.918Z,100.00
2022-12-03T14:46:56.742Z,100.00
2022-12-03T14:49:26.319Z,99.96
2022-12-03T14:51:55.106Z,99.37
2022-12-03T14:54:23.894Z,98.88
2022-12-03T14:56:52.476Z,99.93
2022-12-03T14:59:27.194Z,99.80
2022-12-03T15:01:56.707Z,99.36
2022-12-03T15:04:26.111Z,99.56
2022-12-03T15:06:54.695Z,100.00
2022-12-03T15:09:23.992Z,100.00
2022-12-03T15:11:52.884Z,100.00
2022-12-03T15:14:23.720Z,100.00
2022-12-03T15:16:52.600Z,100.00
2022-12-03T15:19:21.602Z,100.00
2022-12-03T15:21:50.085Z,100.00
2022-12-03T15:24:18.871Z,100.00
2022-12-03T15:26:47.356Z,100.00
2022-12-03T15:29:16.038Z,100.00
2022-12-03T15:31:44.881Z,100.00
2022-12-03T15:34:18.779Z,100.00
2022-12-03T15:36:51.577Z,100.00
2022-12-03T15:39:20.202Z,100.00
2022-12-03T15:41:49.806Z,100.00
2022-12-03T15:44:18.594Z,100.00
2022-12-03T15:46:47.287Z,100.00
2022-12-03T15:49:16.166Z,100.00
2022-12-03T15:51:44.753Z,100.00
2022-12-03T15:54:13.442Z,100.00
2022-12-03T15:56:42.943Z,100.00
2022-12-03T15:59:11.525Z,100.00
2022-12-03T16:01:40.359Z,100.00
2022-12-03T16:04:17.498Z,100.00
2022-12-03T16:06:47.009Z,100.00
2022-12-03T16:09:15.587Z,100.00
2022-12-03T16:11:44.171Z,100.00
2022-12-03T16:14:12.753Z,100.00
2022-12-03T16:16:41.339Z,100.00
2022-12-03T16:19:09.920Z,100.00
2022-12-03T16:21:39.239Z,100.00
2022-12-03T16:24:09.031Z,100.00
2022-12-03T16:26:37.870Z,100.00
2022-12-03T16:29:06.509Z,100.00
2022-12-03T16:31:35.130Z,100.00
2022-12-03T16:34:03.784Z,100.00
2022-12-03T16:36:32.559Z,100.00
2022-12-03T16:39:01.141Z,100.00
2022-12-03T16:41:29.771Z,100.00
2022-12-03T16:43:59.134Z,100.00
2022-12-03T16:46:27.674Z,100.00
2022-12-03T16:48:58.207Z,100.00
2022-12-03T16:51:28.579Z,100.00
2022-12-03T16:53:57.250Z,100.00
2022-12-03T16:56:25.842Z,100.00
2022-12-03T16:58:54.932Z,100.00
2022-12-03T17:01:25.032Z,100.00
2022-12-03T17:03:53.945Z,100.00
2022-12-03T17:06:22.726Z,100.00
2022-12-03T17:08:51.524Z,100.00
2022-12-03T17:11:20.103Z,100.00
2022-12-03T17:13:48.800Z,100.00
2022-12-03T17:16:17.515Z,100.00
2022-12-03T17:18:46.354Z,100.00
2022-12-03T17:21:15.048Z,100.00
2022-12-03T17:23:45.063Z,100.00
2022-12-03T17:26:15.692Z,100.00
2022-12-03T17:28:44.992Z,100.00
2022-12-03T17:31:14.149Z,100.00
2022-12-03T17:33:42.875Z,100.00
2022-12-03T17:36:11.766Z,100.00
2022-12-03T17:38:40.856Z,100.00
2022-12-03T17:41:09.542Z,100.00
2022-12-03T17:43:38.130Z,100.00
2022-12-03T17:46:07.699Z,100.00
2022-12-03T17:48:36.422Z,100.00
2022-12-03T17:51:05.156Z,100.00
2022-12-03T17:53:33.586Z,100.00
2022-12-03T17:56:02.375Z,100.00
2022-12-03T17:58:31.059Z,100.00
2022-12-03T18:01:03.126Z,100.00
2022-12-03T18:03:31.933Z,100.00
2022-12-03T18:06:00.801Z,100.00
2022-12-03T18:08:29.249Z,100.00
2022-12-03T18:10:57.866Z,100.00
2022-12-03T18:13:26.663Z,100.00
2022-12-03T18:15:55.289Z,100.00
2022-12-03T18:18:24.433Z,100.00
2022-12-03T18:20:53.963Z,100.00
2022-12-03T18:23:22.521Z,100.00
2022-12-03T18:25:51.273Z,100.00
2022-12-03T18:28:20.204Z,100.00
2022-12-03T18:30:52.518Z,100.00
2022-12-03T18:33:23.600Z,100.00
2022-12-03T18:35:57.511Z,100.00
2022-12-03T18:38:33.094Z,100.00
2022-12-03T18:41:01.752Z,100.00
2022-12-03T18:43:30.439Z,100.00
2022-12-03T18:45:59.325Z,100.00
2022-12-03T18:48:27.816Z,100.00
2022-12-03T18:50:56.798Z,100.00
2022-12-03T18:53:25.381Z,100.00
2022-12-03T18:55:53.880Z,100.00
2022-12-03T18:58:22.448Z,100.00
2022-12-03T19:00:51.160Z,100.00
2022-12-03T19:03:19.909Z,100.00
2022-12-03T19:05:48.813Z,100.00
2022-12-03T19:08:20.051Z,100.00
2022-12-03T19:10:59.802Z,100.00
2022-12-03T19:13:28.905Z,100.00
2022-12-03T19:15:57.672Z,100.00
2022-12-03T19:18:26.470Z,100.00
2022-12-03T19:20:55.367Z,100.00
2022-12-03T19:23:24.456Z,100.00
2022-12-03T19:26:01.396Z,100.00
2022-12-03T19:28:29.917Z,100.00
2022-12-03T19:31:03.679Z,100.00
2022-12-03T19:33:33.166Z,100.00
2022-12-03T19:36:04.064Z,100.00
2022-12-03T19:38:33.468Z,100.00
2022-12-03T19:41:07.952Z,100.00
2022-12-03T19:43:38.342Z,100.00
2022-12-03T19:46:08.927Z,100.00
2022-12-03T19:48:39.339Z,100.00
2022-12-03T19:51:32.964Z,100.00
2022-12-03T19:53:57.533Z,100.00
2022-12-03T19:56:26.219Z,100.00
2022-12-03T19:58:55.724Z,100.00
2022-12-03T20:01:27.007Z,100.00
2022-12-03T20:03:58.108Z,100.00
2022-12-03T20:06:29.806Z,100.00
2022-12-03T20:09:05.101Z,100.00
2022-12-03T20:11:34.801Z,100.00
2022-12-03T20:14:07.021Z,100.00
2022-12-03T20:16:36.741Z,100.00
2022-12-03T20:19:07.837Z,100.00
2022-12-03T20:21:37.553Z,100.00
2022-12-03T20:24:07.432Z,100.00
2022-12-03T20:26:36.139Z,100.00
2022-12-03T20:29:04.724Z,100.00
2022-12-03T20:31:33.662Z,100.00
2022-12-03T20:34:04.659Z,100.00
2022-12-03T20:36:33.442Z,100.00
2022-12-03T20:39:07.152Z,100.00
2022-12-03T20:41:36.756Z,100.00
2022-12-03T20:44:08.045Z,100.00
2022-12-03T20:46:36.762Z,100.00
2022-12-03T20:49:05.674Z,100.00
2022-12-03T20:51:34.262Z,100.00
2022-12-03T20:54:03.208Z,100.00
2022-12-03T20:56:34.766Z,100.00
2022-12-03T20:59:06.674Z,100.00
2022-12-03T21:01:36.596Z,100.00
2022-12-03T21:04:05.985Z,100.00
2022-12-03T21:06:36.401Z,100.00
2022-12-03T21:09:07.089Z,100.00
2022-12-03T21:11:39.147Z,100.00
2022-12-03T21:14:08.617Z,100.00
2022-12-03T21:17:07.352Z,100.00
2022-12-03T21:19:28.508Z,100.00
2022-12-03T21:21:57.323Z,100.00
2022-12-03T21:24:25.985Z,100.00
2022-12-03T21:26:54.672Z,100.00
2022-12-03T21:29:25.097Z,100.00
2022-12-03T21:31:53.992Z,100.00
2022-12-03T21:34:22.878Z,100.00
2022-12-03T21:36:51.561Z,100.00
2022-12-03T21:39:20.247Z,100.00
2022-12-03T21:42:19.006Z,100.00
2022-12-03T21:44:38.711Z,100.00
2022-12-03T21:47:10.610Z,100.00
2022-12-03T21:49:41.827Z,100.00
2022-12-03T21:52:11.527Z,100.00
2022-12-03T21:54:40.111Z,100.00
2022-12-03T21:57:08.796Z,100.00
2022-12-03T21:59:37.582Z,100.00
2022-12-03T22:02:06.477Z,100.00
2022-12-03T22:04:35.473Z,100.00
2022-12-03T22:07:04.810Z,100.00
2022-12-03T22:09:34.169Z,100.00
2022-12-03T22:12:02.752Z,100.00
2022-12-03T22:14:32.182Z,100.00
2022-12-03T22:17:00.746Z,100.00
2022-12-03T22:19:29.624Z,100.00
2022-12-03T22:21:58.415Z,100.00
2022-12-03T22:24:27.006Z,100.00
2022-12-03T22:26:56.195Z,100.00
2022-12-03T22:29:25.097Z,100.00
2022-12-03T22:31:53.978Z,100.00
2022-12-03T22:34:23.595Z,100.00
2022-12-03T22:36:52.379Z,100.00
2022-12-03T22:39:21.367Z,100.00
2022-12-03T22:41:50.255Z,100.00
2022-12-03T22:44:19.585Z,100.00
2022-12-03T22:46:48.378Z,100.00
2022-12-03T22:49:17.045Z,100.00
2022-12-03T22:51:47.071Z,100.00
2022-12-03T22:54:20.901Z,100.00
2022-12-03T22:56:52.615Z,100.00
2022-12-03T22:59:21.605Z,100.00
2022-12-03T23:01:50.597Z,100.00
2022-12-03T23:04:19.894Z,100.00
2022-12-03T23:06:48.886Z,100.00
2022-12-03T23:09:17.920Z,100.00
2022-12-03T23:11:47.181Z,100.00
2022-12-03T23:14:16.171Z,100.00
2022-12-03T23:16:45.065Z,100.00
2022-12-03T23:19:15.090Z,100.00
2022-12-03T23:21:43.659Z,100.00
2022-12-03T23:24:12.667Z,100.00
2022-12-03T23:26:41.550Z,100.00
2022-12-03T23:29:11.160Z,100.00
2022-12-03T23:31:40.231Z,100.00
2022-12-03T23:34:09.396Z,100.00
2022-12-03T23:36:38.441Z,100.00
2022-12-03T23:39:07.329Z,100.00
2022-12-03T23:41:36.732Z,100.00
2022-12-03T23:44:06.036Z,100.00
2022-12-03T23:46:35.685Z,100.00
2022-12-03T23:49:04.626Z,100.00
2022-12-03T23:51:34.653Z,100.00
2022-12-03T23:54:03.749Z,100.00
2022-12-03T23:56:32.947Z,100.00
2022-12-03T23:59:02.095Z,100.00
